Terminal Aerodrome Forecast
Issued by NWS

Home | Current Version | Previous Version | Text Only | Print | Product List | Glossary On
Versions: 1 2 3 4 5 6 7 8 9 10 11 12 13 14 15 16 17 18 19 20 21 22 23 24 25 26 27
000
FTUS41 KOKX 241734
TAFSWF
TAF
KSWF 241734Z 2418/2524 29008KT P6SM FEW060 SCT250
     FM242300 VRB05KT P6SM SCT060 BKN200
     FM251200 25006KT 6SM HZ SCT150 BKN200
     FM251800 20010KT P6SM SCT050 BKN100 PROB30 2518/2523 TSRA
      BKN040CB
      AMD NOT SKED=

USA.gov is the U.S. government's official web portal to all federal, state and local government web resources and services.